»·PEaware :: N734AU KSBA-KONT

N734AU :: KSBA-KONT

FLIGHT INFORMATION

Flight Status: Arrived
Operator: Privately registered:
United States
More flights under this callsign
Pilot: Jerome A. (17490)
Aircraft: CESSNA T210 TURBO CENTURION
(T210)
More flights by this aircraft type
Origin: KSBA Santa Barbara Mun
United States
Destination: KONT Ontario Intl
United States
More flights between these airports :: More routes between these airports
Route: +
File this flight plan on PilotEdge
Remarks:
Altitude:
(Current/Filed)
1,500ft
Speed:
(Current/Filed)
0kts
Departed: 11-Oct-18 12:05 PM
Arrived: 11-Oct-18 12:59 PM
Distance/Time
Traveled:
113nm/0:54
Distance/Time
To Go:
Arrived

Flight Plot

Page will automatically refresh every two minutes.


Map Options




Map Legend


Flown Route
Filed Route
Departure Airport
Arrival Airport
Navaid (VOR, NDB)
Fix

Horizontal Profiles

Position Reports

Time Latitude Longitude Heading Altitude Ground
Speed
11-Oct-18 11:56 34.425823 -119.836723 189 14ft 0kts
11-Oct-18 11:57 34.425823 -119.836723 189 14ft 0kts
11-Oct-18 11:58 34.425823 -119.836723 189 14ft 0kts
11-Oct-18 11:59 34.425823 -119.836723 189 14ft 0kts
11-Oct-18 12:00 34.425657 -119.836763 226 14ft 7kts
11-Oct-18 12:01 34.426849 -119.838410 343 14ft 11kts
11-Oct-18 12:02 34.430640 -119.839708 283 14ft 3kts
11-Oct-18 12:03 34.430641 -119.839712 282 14ft 0kts
11-Oct-18 12:04 34.430641 -119.839712 282 14ft 0kts
11-Oct-18 12:05 34.430641 -119.839712 282 14ft 0kts
11-Oct-18 12:06 34.430641 -119.839712 282 14ft 0kts
11-Oct-18 12:07 34.428644 -119.839733 168 14ft 51kts
11-Oct-18 12:08 34.403153 -119.834598 171 445ft 116kts
11-Oct-18 12:09 34.371132 -119.828198 168 1154ft 124kts
11-Oct-18 12:10 34.338710 -119.831659 177 1903ft 114kts
11-Oct-18 12:11 34.314341 -119.819137 127 2353ft 121kts
11-Oct-18 12:12 34.307596 -119.774219 91 2925ft 133kts
11-Oct-18 12:13 34.302929 -119.739237 101 3385ft 124kts
11-Oct-18 12:14 34.297575 -119.698212 81 3733ft 125kts
11-Oct-18 12:15 34.297232 -119.649427 95 4250ft 121kts
11-Oct-18 12:16 34.291283 -119.616047 106 4594ft 124kts
11-Oct-18 12:17 34.285108 -119.574426 96 4954ft 128kts
11-Oct-18 12:18 34.280577 -119.531466 96 5318ft 130kts
11-Oct-18 12:19 34.274234 -119.488411 92 5670ft 132kts
11-Oct-18 12:20 34.271604 -119.450938 94 5926ft 124kts
11-Oct-18 12:21 34.265499 -119.402519 97 5856ft 149kts
11-Oct-18 12:22 34.260338 -119.349700 95 5732ft 161kts
11-Oct-18 12:23 34.252351 -119.297955 105 6148ft 134kts
11-Oct-18 12:24 34.241064 -119.248640 101 6015ft 154kts
11-Oct-18 12:25 34.236617 -119.200320 86 6367ft 143kts
11-Oct-18 12:26 34.240623 -119.148480 80 6261ft 174kts
11-Oct-18 12:27 34.245390 -119.089920 85 5467ft 161kts
11-Oct-18 12:28 34.248308 -119.038297 85 5556ft 153kts
11-Oct-18 12:29 34.249626 -118.986818 88 5695ft 154kts
11-Oct-18 12:30 34.249628 -118.933633 86 5662ft 160kts
11-Oct-18 12:31 34.251005 -118.880578 87 5685ft 159kts
11-Oct-18 12:32 34.251144 -118.827590 88 5729ft 160kts
11-Oct-18 12:33 34.249719 -118.777350 91 5683ft 163kts
11-Oct-18 12:34 34.245362 -118.721972 95 5667ft 157kts
11-Oct-18 12:35 34.239045 -118.668299 96 5541ft 166kts
11-Oct-18 12:36 34.228240 -118.614662 103 5504ft 164kts
11-Oct-18 12:37 34.216552 -118.564099 101 5479ft 163kts
11-Oct-18 12:38 34.206929 -118.510298 98 5374ft 166kts
11-Oct-18 12:39 34.197280 -118.456497 100 5298ft 165kts
11-Oct-18 12:40 34.186700 -118.403177 104 5280ft 161kts
11-Oct-18 12:41 34.173568 -118.352084 106 5338ft 160kts
11-Oct-18 12:42 34.159445 -118.301834 104 5305ft 163kts
11-Oct-18 12:43 34.147595 -118.249357 101 5288ft 161kts
11-Oct-18 12:44 34.142361 -118.196058 91 5300ft 160kts
11-Oct-18 12:45 34.137332 -118.142492 96 5267ft 161kts
11-Oct-18 12:46 34.129451 -118.089028 102 5212ft 163kts
11-Oct-18 12:47 34.119522 -118.035733 98 5169ft 162kts
11-Oct-18 12:48 34.110262 -117.982462 99 5081ft 166kts
11-Oct-18 12:49 34.107483 -117.926629 91 4625ft 166kts
11-Oct-18 12:50 34.103518 -117.883326 97 4106ft 170kts
11-Oct-18 12:51 34.096357 -117.828968 101 3400ft 154kts
11-Oct-18 12:52 34.084646 -117.780084 106 2667ft 146kts
11-Oct-18 12:53 34.074850 -117.733687 105 2044ft 137kts
11-Oct-18 12:54 34.061864 -117.694927 114 1811ft 127kts
11-Oct-18 12:55 34.047134 -117.656351 104 1990ft 121kts
11-Oct-18 12:56 34.039333 -117.617379 102 1884ft 124kts
11-Oct-18 12:57 34.033667 -117.577789 96 1698ft 109kts
11-Oct-18 12:58 34.041213 -117.546509 359 1369ft 106kts
11-Oct-18 12:59 34.054951 -117.568613 268 1084ft 87kts
11-Oct-18 13:00 34.054900 -117.595062 272 942ft 60kts
11-Oct-18 13:01 34.053932 -117.598034 233 942ft 12kts
11-Oct-18 13:02 34.053130 -117.603189 62 942ft 0kts
11-Oct-18 13:03 34.053130 -117.603189 62 942ft 0kts
11-Oct-18 13:04 34.053130 -117.603189 62 942ft 0kts
11-Oct-18 13:05 34.053130 -117.603189 62 942ft 0kts
11-Oct-18 13:06 34.053130 -117.603189 62 942ft 0kts
11-Oct-18 13:07 34.053130 -117.603189 62 942ft 0kts
11-Oct-18 13:08 34.053130 -117.603189 62 942ft 0kts
11-Oct-18 13:09 34.053130 -117.603189 62 942ft 0kts
11-Oct-18 13:10 34.053130 -117.603189 62 942ft 0kts
11-Oct-18 13:11 34.053130 -117.603189 62 942ft 0kts
11-Oct-18 13:12 34.053130 -117.603189 62 942ft 0kts
11-Oct-18 13:13 34.053130 -117.603189 62 942ft 0kts

Navigation Log

Ident Type
1. KSBA Airport
2. KONT Airport